sensor_id;sensor_type;location;lat;lon;timestamp;P1;durP1;ratioP1;P2;durP2;ratioP2
28028;SDS011;15345;59.364;18.016;2024-03-23T00:54:13;9.27;;;2.00;;
28028;SDS011;15345;59.364;18.016;2024-03-23T00:55:32;10.07;;;2.63;;
28028;SDS011;15345;59.364;18.016;2024-03-23T00:56:51;14.15;;;3.03;;
28028;SDS011;15345;59.364;18.016;2024-03-23T00:58:11;18.65;;;2.22;;
28028;SDS011;15345;59.364;18.016;2024-03-23T00:59:30;10.07;;;2.10;;
28028;SDS011;15345;59.364;18.016;2024-03-23T01:00:49;16.20;;;2.40;;
28028;SDS011;15345;59.364;18.016;2024-03-23T01:02:08;14.48;;;2.58;;
28028;SDS011;15345;59.364;18.016;2024-03-23T01:03:27;15.15;;;2.55;;
28028;SDS011;15345;59.364;18.016;2024-03-23T01:04:46;7.40;;;2.17;;
28028;SDS011;15345;59.364;18.016;2024-03-23T01:06:05;7.22;;;2.30;;
28028;SDS011;15345;59.364;18.016;2024-03-23T01:07:24;11.20;;;2.30;;
28028;SDS011;15345;59.364;18.016;2024-03-23T01:08:43;12.20;;;2.45;;
28028;SDS011;15345;59.364;18.016;2024-03-23T01:10:02;13.40;;;2.15;;
28028;SDS011;15345;59.364;18.016;2024-03-23T01:11:21;15.05;;;2.47;;
28028;SDS011;15345;59.364;18.016;2024-03-23T01:12:39;15.13;;;3.28;;
28028;SDS011;15345;59.364;18.016;2024-03-23T01:13:58;10.23;;;2.60;;
28028;SDS011;15345;59.364;18.016;2024-03-23T01:15:17;9.32;;;2.03;;
28028;SDS011;15345;59.364;18.016;2024-03-23T01:16:36;14.70;;;2.13;;
28028;SDS011;15345;59.364;18.016;2024-03-23T01:17:55;11.20;;;3.08;;
28028;SDS011;15345;59.364;18.016;2024-03-23T01:19:14;9.70;;;2.17;;
28028;SDS011;15345;59.364;18.016;2024-03-23T01:20:33;9.95;;;2.33;;
28028;SDS011;15345;59.364;18.016;2024-03-23T01:21:52;13.95;;;2.25;;
28028;SDS011;15345;59.364;18.016;2024-03-23T01:23:11;11.10;;;2.60;;
28028;SDS011;15345;59.364;18.016;2024-03-23T01:24:29;8.52;;;1.83;;
28028;SDS011;15345;59.364;18.016;2024-03-23T01:25:52;11.48;;;2.20;;
28028;SDS011;15345;59.364;18.016;2024-03-23T01:28:30;8.23;;;1.60;;
28028;SDS011;15345;59.364;18.016;2024-03-23T01:29:49;10.55;;;1.60;;
28028;SDS011;15345;59.364;18.016;2024-03-23T01:31:09;9.07;;;2.35;;
28028;SDS011;15345;59.364;18.016;2024-03-23T01:32:28;11.57;;;2.58;;
28028;SDS011;15345;59.364;18.016;2024-03-23T01:33:47;8.70;;;1.88;;
28028;SDS011;15345;59.364;18.016;2024-03-23T01:35:06;9.38;;;2.03;;
28028;SDS011;15345;59.364;18.016;2024-03-23T01:36:25;18.17;;;2.15;;
28028;SDS011;15345;59.364;18.016;2024-03-23T01:37:44;11.38;;;2.38;;
28028;SDS011;15345;59.364;18.016;2024-03-23T01:39:03;5.70;;;1.50;;
28028;SDS011;15345;59.364;18.016;2024-03-23T01:40:22;8.00;;;2.00;;
28028;SDS011;15345;59.364;18.016;2024-03-23T01:41:41;11.13;;;2.42;;
28028;SDS011;15345;59.364;18.016;2024-03-23T01:43:03;9.98;;;2.10;;
28028;SDS011;15345;59.364;18.016;2024-03-23T01:44:23;7.97;;;1.90;;
28028;SDS011;15345;59.364;18.016;2024-03-23T01:45:41;9.77;;;2.22;;
28028;SDS011;15345;59.364;18.016;2024-03-23T01:47:00;11.02;;;1.85;;
28028;SDS011;15345;59.364;18.016;2024-03-23T01:48:20;16.30;;;2.08;;
28028;SDS011;15345;59.364;18.016;2024-03-23T01:49:39;14.23;;;2.17;;
28028;SDS011;15345;59.364;18.016;2024-03-23T01:50:58;11.48;;;1.83;;
28028;SDS011;15345;59.364;18.016;2024-03-23T01:52:17;12.75;;;1.90;;
28028;SDS011;15345;59.364;18.016;2024-03-23T01:53:36;12.35;;;1.92;;
28028;SDS011;15345;59.364;18.016;2024-03-23T01:54:55;7.93;;;1.90;;
28028;SDS011;15345;59.364;18.016;2024-03-23T01:56:14;7.55;;;1.90;;
28028;SDS011;15345;59.364;18.016;2024-03-23T01:57:32;9.93;;;2.28;;
28028;SDS011;15345;59.364;18.016;2024-03-23T01:58:51;10.60;;;1.75;;
28028;SDS011;15345;59.364;18.016;2024-03-23T02:00:10;11.05;;;2.20;;
28028;SDS011;15345;59.364;18.016;2024-03-23T02:01:31;14.35;;;2.85;;
28028;SDS011;15345;59.364;18.016;2024-03-23T02:02:50;9.20;;;1.63;;
28028;SDS011;15345;59.364;18.016;2024-03-23T02:04:09;9.10;;;1.65;;
28028;SDS011;15345;59.364;18.016;2024-03-23T02:05:28;10.73;;;2.50;;
28028;SDS011;15345;59.364;18.016;2024-03-23T02:06:48;6.47;;;1.60;;
28028;SDS011;15345;59.364;18.016;2024-03-23T02:08:07;11.52;;;1.83;;
28028;SDS011;15345;59.364;18.016;2024-03-23T02:09:26;14.52;;;2.60;;
28028;SDS011;15345;59.364;18.016;2024-03-23T02:10:45;9.00;;;2.38;;
28028;SDS011;15345;59.364;18.016;2024-03-23T02:12:04;15.80;;;2.25;;
28028;SDS011;15345;59.364;18.016;2024-03-23T02:13:23;10.38;;;1.95;;
28028;SDS011;15345;59.364;18.016;2024-03-23T02:14:42;14.63;;;2.08;;
28028;SDS011;15345;59.364;18.016;2024-03-23T02:16:01;12.02;;;2.10;;
28028;SDS011;15345;59.364;18.016;2024-03-23T02:17:20;12.95;;;1.92;;
28028;SDS011;15345;59.364;18.016;2024-03-23T02:18:39;15.57;;;2.42;;
28028;SDS011;15345;59.364;18.016;2024-03-23T02:19:57;14.68;;;2.20;;
28028;SDS011;15345;59.364;18.016;2024-03-23T02:21:16;9.68;;;2.30;;
28028;SDS011;15345;59.364;18.016;2024-03-23T02:22:36;17.92;;;2.65;;
28028;SDS011;15345;59.364;18.016;2024-03-23T02:23:55;13.75;;;1.98;;
28028;SDS011;15345;59.364;18.016;2024-03-23T02:25:14;12.98;;;2.63;;
28028;SDS011;15345;59.364;18.016;2024-03-23T02:26:33;10.05;;;1.83;;
28028;SDS011;15345;59.364;18.016;2024-03-23T02:27:52;6.85;;;2.05;;
28028;SDS011;15345;59.364;18.016;2024-03-23T02:29:12;7.18;;;1.88;;
28028;SDS011;15345;59.364;18.016;2024-03-23T02:30:31;10.45;;;2.03;;
28028;SDS011;15345;59.364;18.016;2024-03-23T02:31:50;11.95;;;2.38;;
28028;SDS011;15345;59.364;18.016;2024-03-23T02:33:09;13.50;;;2.20;;
28028;SDS011;15345;59.364;18.016;2024-03-23T02:34:28;6.32;;;1.63;;
28028;SDS011;15345;59.364;18.016;2024-03-23T02:35:47;10.45;;;1.98;;
28028;SDS011;15345;59.364;18.016;2024-03-23T02:37:10;9.98;;;2.72;;
28028;SDS011;15345;59.364;18.016;2024-03-23T02:38:29;12.15;;;1.83;;
28028;SDS011;15345;59.364;18.016;2024-03-23T02:39:48;10.73;;;2.20;;
28028;SDS011;15345;59.364;18.016;2024-03-23T02:41:07;11.52;;;2.20;;
28028;SDS011;15345;59.364;18.016;2024-03-23T02:42:26;9.63;;;2.72;;
28028;SDS011;15345;59.364;18.016;2024-03-23T02:43:45;5.70;;;1.50;;
28028;SDS011;15345;59.364;18.016;2024-03-23T02:45:04;12.95;;;2.13;;
28028;SDS011;15345;59.364;18.016;2024-03-23T02:46:23;11.98;;;1.95;;
28028;SDS011;15345;59.364;18.016;2024-03-23T02:47:42;14.25;;;2.17;;
28028;SDS011;15345;59.364;18.016;2024-03-23T02:49:01;12.77;;;2.28;;
28028;SDS011;15345;59.364;18.016;2024-03-23T02:50:22;16.77;;;2.47;;
28028;SDS011;15345;59.364;18.016;2024-03-23T02:51:41;13.20;;;2.45;;
28028;SDS011;15345;59.364;18.016;2024-03-23T02:53:00;9.35;;;1.80;;
28028;SDS011;15345;59.364;18.016;2024-03-23T02:54:18;12.82;;;1.92;;
28028;SDS011;15345;59.364;18.016;2024-03-23T02:55:37;12.32;;;2.92;;
28028;SDS011;15345;59.364;18.016;2024-03-23T02:56:56;7.60;;;1.60;;
28028;SDS011;15345;59.364;18.016;2024-03-23T02:58:15;15.25;;;2.08;;
28028;SDS011;15345;59.364;18.016;2024-03-23T02:59:34;11.45;;;2.15;;
28028;SDS011;15345;59.364;18.016;2024-03-23T03:00:53;10.02;;;1.60;;
28028;SDS011;15345;59.364;18.016;2024-03-23T03:02:13;9.65;;;1.83;;
28028;SDS011;15345;59.364;18.016;2024-03-23T03:03:32;13.50;;;2.40;;
28028;SDS011;15345;59.364;18.016;2024-03-23T03:04:51;11.90;;;1.98;;
28028;SDS011;15345;59.364;18.016;2024-03-23T03:06:10;18.15;;;2.58;;
28028;SDS011;15345;59.364;18.016;2024-03-23T03:07:29;11.65;;;1.98;;
28028;SDS011;15345;59.364;18.016;2024-03-23T03:08:48;12.63;;;2.25;;
28028;SDS011;15345;59.364;18.016;2024-03-23T03:10:07;14.43;;;2.35;;
28028;SDS011;15345;59.364;18.016;2024-03-23T03:11:29;14.55;;;2.50;;
28028;SDS011;15345;59.364;18.016;2024-03-23T03:12:48;9.77;;;2.15;;
28028;SDS011;15345;59.364;18.016;2024-03-23T03:14:07;13.90;;;2.42;;
28028;SDS011;15345;59.364;18.016;2024-03-23T03:15:26;11.70;;;2.30;;
28028;SDS011;15345;59.364;18.016;2024-03-23T03:16:46;9.68;;;2.35;;
28028;SDS011;15345;59.364;18.016;2024-03-23T03:18:05;14.57;;;2.00;;
28028;SDS011;15345;59.364;18.016;2024-03-23T03:19:23;14.50;;;2.63;;
28028;SDS011;15345;59.364;18.016;2024-03-23T03:20:42;15.77;;;2.05;;
28028;SDS011;15345;59.364;18.016;2024-03-23T03:22:02;17.08;;;2.35;;
28028;SDS011;15345;59.364;18.016;2024-03-23T03:23:22;8.38;;;1.77;;
28028;SDS011;15345;59.364;18.016;2024-03-23T03:24:41;12.90;;;2.30;;
28028;SDS011;15345;59.364;18.016;2024-03-23T03:26:01;15.60;;;2.13;;
28028;SDS011;15345;59.364;18.016;2024-03-23T03:27:20;14.93;;;3.00;;
28028;SDS011;15345;59.364;18.016;2024-03-23T03:28:41;8.95;;;1.90;;
28028;SDS011;15345;59.364;18.016;2024-03-23T03:30:00;8.35;;;1.90;;
28028;SDS011;15345;59.364;18.016;2024-03-23T03:31:21;15.45;;;3.28;;
28028;SDS011;15345;59.364;18.016;2024-03-23T03:32:40;11.73;;;2.50;;
28028;SDS011;15345;59.364;18.016;2024-03-23T03:33:59;18.55;;;2.85;;
28028;SDS011;15345;59.364;18.016;2024-03-23T03:35:17;10.52;;;1.98;;
28028;SDS011;15345;59.364;18.016;2024-03-23T03:36:36;13.10;;;2.50;;
28028;SDS011;15345;59.364;18.016;2024-03-23T03:37:55;12.15;;;2.28;;
28028;SDS011;15345;59.364;18.016;2024-03-23T03:39:14;13.55;;;2.05;;
28028;SDS011;15345;59.364;18.016;2024-03-23T03:40:34;11.10;;;2.60;;
28028;SDS011;15345;59.364;18.016;2024-03-23T03:41:53;10.95;;;2.30;;
28028;SDS011;15345;59.364;18.016;2024-03-23T03:43:12;14.82;;;2.95;;
28028;SDS011;15345;59.364;18.016;2024-03-23T03:44:31;16.60;;;2.40;;
28028;SDS011;15345;59.364;18.016;2024-03-23T03:45:53;13.60;;;2.30;;
28028;SDS011;15345;59.364;18.016;2024-03-23T03:47:12;8.88;;;2.03;;
28028;SDS011;15345;59.364;18.016;2024-03-23T03:48:31;22.95;;;2.60;;
28028;SDS011;15345;59.364;18.016;2024-03-23T03:49:50;15.23;;;2.15;;
28028;SDS011;15345;59.364;18.016;2024-03-23T03:51:09;14.27;;;2.15;;
28028;SDS011;15345;59.364;18.016;2024-03-23T03:52:28;13.55;;;2.88;;
28028;SDS011;15345;59.364;18.016;2024-03-23T03:53:47;12.38;;;2.65;;
28028;SDS011;15345;59.364;18.016;2024-03-23T03:55:11;14.35;;;2.50;;
28028;SDS011;15345;59.364;18.016;2024-03-23T03:56:31;12.80;;;2.17;;
28028;SDS011;15345;59.364;18.016;2024-03-23T03:57:49;10.65;;;2.20;;
28028;SDS011;15345;59.364;18.016;2024-03-23T03:59:08;11.85;;;2.33;;
28028;SDS011;15345;59.364;18.016;2024-03-23T04:00:27;13.68;;;3.28;;
28028;SDS011;15345;59.364;18.016;2024-03-23T04:01:46;20.30;;;3.03;;
28028;SDS011;15345;59.364;18.016;2024-03-23T04:03:05;12.50;;;2.47;;
28028;SDS011;15345;59.364;18.016;2024-03-23T04:04:24;13.95;;;2.67;;
28028;SDS011;15345;59.364;18.016;2024-03-23T04:05:47;17.67;;;2.63;;
28028;SDS011;15345;59.364;18.016;2024-03-23T04:07:08;24.52;;;2.83;;
28028;SDS011;15345;59.364;18.016;2024-03-23T04:08:27;14.43;;;3.03;;
28028;SDS011;15345;59.364;18.016;2024-03-23T04:09:46;14.85;;;2.72;;
28028;SDS011;15345;59.364;18.016;2024-03-23T04:11:05;14.38;;;2.40;;
28028;SDS011;15345;59.364;18.016;2024-03-23T04:12:24;17.80;;;2.60;;
28028;SDS011;15345;59.364;18.016;2024-03-23T04:13:43;18.80;;;2.83;;
28028;SDS011;15345;59.364;18.016;2024-03-23T04:15:01;20.27;;;3.20;;
28028;SDS011;15345;59.364;18.016;2024-03-23T04:16:33;20.63;;;2.97;;
28028;SDS011;15345;59.364;18.016;2024-03-23T04:17:52;16.38;;;2.95;;
28028;SDS011;15345;59.364;18.016;2024-03-23T04:19:11;17.52;;;3.50;;
28028;SDS011;15345;59.364;18.016;2024-03-23T04:20:30;12.68;;;2.67;;
28028;SDS011;15345;59.364;18.016;2024-03-23T04:21:49;17.60;;;3.03;;
28028;SDS011;15345;59.364;18.016;2024-03-23T04:23:08;18.48;;;3.05;;
28028;SDS011;15345;59.364;18.016;2024-03-23T04:24:27;16.00;;;2.95;;
28028;SDS011;15345;59.364;18.016;2024-03-23T04:25:46;24.70;;;3.10;;
28028;SDS011;15345;59.364;18.016;2024-03-23T04:27:05;24.00;;;3.08;;
28028;SDS011;15345;59.364;18.016;2024-03-23T04:28:24;19.08;;;3.22;;
28028;SDS011;15345;59.364;18.016;2024-03-23T04:29:46;14.02;;;2.28;;
28028;SDS011;15345;59.364;18.016;2024-03-23T04:31:05;12.35;;;2.83;;
28028;SDS011;15345;59.364;18.016;2024-03-23T04:32:24;14.63;;;3.00;;
28028;SDS011;15345;59.364;18.016;2024-03-23T04:33:43;15.25;;;2.35;;
28028;SDS011;15345;59.364;18.016;2024-03-23T04:35:02;14.95;;;2.95;;
28028;SDS011;15345;59.364;18.016;2024-03-23T04:36:24;17.20;;;2.30;;
28028;SDS011;15345;59.364;18.016;2024-03-23T04:37:43;18.33;;;2.80;;
28028;SDS011;15345;59.364;18.016;2024-03-23T04:39:02;14.35;;;2.75;;
28028;SDS011;15345;59.364;18.016;2024-03-23T04:40:21;19.38;;;2.78;;
28028;SDS011;15345;59.364;18.016;2024-03-23T04:41:40;14.60;;;2.60;;
28028;SDS011;15345;59.364;18.016;2024-03-23T04:42:59;16.98;;;2.53;;
28028;SDS011;15345;59.364;18.016;2024-03-23T04:44:19;20.58;;;3.03;;
28028;SDS011;15345;59.364;18.016;2024-03-23T04:45:38;13.90;;;2.45;;
28028;SDS011;15345;59.364;18.016;2024-03-23T04:46:57;13.25;;;3.35;;
28028;SDS011;15345;59.364;18.016;2024-03-23T04:48:19;14.80;;;2.88;;
28028;SDS011;15345;59.364;18.016;2024-03-23T04:49:38;18.40;;;3.25;;
28028;SDS011;15345;59.364;18.016;2024-03-23T04:50:57;17.40;;;2.88;;
28028;SDS011;15345;59.364;18.016;2024-03-23T04:52:17;19.63;;;3.13;;
28028;SDS011;15345;59.364;18.016;2024-03-23T04:53:36;18.15;;;3.33;;
28028;SDS011;15345;59.364;18.016;2024-03-23T04:54:55;9.52;;;2.10;;
28028;SDS011;15345;59.364;18.016;2024-03-23T04:56:14;21.60;;;2.83;;
28028;SDS011;15345;59.364;18.016;2024-03-23T04:57:33;28.33;;;3.17;;
28028;SDS011;15345;59.364;18.016;2024-03-23T04:58:52;20.50;;;2.83;;
28028;SDS011;15345;59.364;18.016;2024-03-23T05:00:12;20.88;;;3.10;;
28028;SDS011;15345;59.364;18.016;2024-03-23T05:01:35;14.05;;;3.10;;
28028;SDS011;15345;59.364;18.016;2024-03-23T05:02:57;15.05;;;3.45;;
28028;SDS011;15345;59.364;18.016;2024-03-23T05:04:15;19.38;;;2.83;;
28028;SDS011;15345;59.364;18.016;2024-03-23T05:05:35;16.85;;;2.83;;
28028;SDS011;15345;59.364;18.016;2024-03-23T05:06:53;19.98;;;3.17;;
28028;SDS011;15345;59.364;18.016;2024-03-23T05:08:12;13.20;;;3.13;;
28028;SDS011;15345;59.364;18.016;2024-03-23T05:09:31;16.50;;;2.58;;
28028;SDS011;15345;59.364;18.016;2024-03-23T05:10:51;24.25;;;3.22;;
28028;SDS011;15345;59.364;18.016;2024-03-23T05:12:10;17.90;;;3.13;;
28028;SDS011;15345;59.364;18.016;2024-03-23T05:13:29;15.25;;;2.88;;
28028;SDS011;15345;59.364;18.016;2024-03-23T05:14:48;14.88;;;3.25;;
28028;SDS011;15345;59.364;18.016;2024-03-23T05:16:08;17.85;;;2.45;;
28028;SDS011;15345;59.364;18.016;2024-03-23T05:17:27;21.60;;;3.30;;
28028;SDS011;15345;59.364;18.016;2024-03-23T05:18:46;19.58;;;3.20;;
28028;SDS011;15345;59.364;18.016;2024-03-23T05:20:05;18.08;;;2.95;;
28028;SDS011;15345;59.364;18.016;2024-03-23T05:21:28;16.40;;;2.47;;
28028;SDS011;15345;59.364;18.016;2024-03-23T05:22:47;16.63;;;3.33;;
28028;SDS011;15345;59.364;18.016;2024-03-23T05:24:06;17.35;;;3.00;;
28028;SDS011;15345;59.364;18.016;2024-03-23T05:25:25;22.08;;;3.53;;
28028;SDS011;15345;59.364;18.016;2024-03-23T05:26:44;15.82;;;2.28;;
28028;SDS011;15345;59.364;18.016;2024-03-23T05:28:03;11.43;;;2.97;;
28028;SDS011;15345;59.364;18.016;2024-03-23T05:29:22;21.27;;;3.22;;
28028;SDS011;15345;59.364;18.016;2024-03-23T05:30:42;14.90;;;2.53;;
28028;SDS011;15345;59.364;18.016;2024-03-23T05:32:00;13.50;;;3.55;;
28028;SDS011;15345;59.364;18.016;2024-03-23T05:33:20;23.42;;;4.03;;
28028;SDS011;15345;59.364;18.016;2024-03-23T05:34:39;21.02;;;3.13;;
28028;SDS011;15345;59.364;18.016;2024-03-23T05:35:59;24.88;;;3.90;;
28028;SDS011;15345;59.364;18.016;2024-03-23T05:37:18;18.73;;;3.60;;
28028;SDS011;15345;59.364;18.016;2024-03-23T05:38:37;19.83;;;2.80;;
28028;SDS011;15345;59.364;18.016;2024-03-23T05:39:55;18.02;;;2.75;;
28028;SDS011;15345;59.364;18.016;2024-03-23T05:41:14;15.02;;;3.05;;
28028;SDS011;15345;59.364;18.016;2024-03-23T05:42:33;17.70;;;3.10;;
28028;SDS011;15345;59.364;18.016;2024-03-23T05:43:52;15.32;;;2.65;;
28028;SDS011;15345;59.364;18.016;2024-03-23T05:45:11;17.50;;;3.22;;
28028;SDS011;15345;59.364;18.016;2024-03-23T05:46:31;20.70;;;3.28;;
28028;SDS011;15345;59.364;18.016;2024-03-23T05:47:50;19.35;;;2.85;;
28028;SDS011;15345;59.364;18.016;2024-03-23T05:49:09;15.55;;;3.03;;
28028;SDS011;15345;59.364;18.016;2024-03-23T05:50:28;16.55;;;3.25;;
28028;SDS011;15345;59.364;18.016;2024-03-23T05:51:47;19.98;;;3.17;;
28028;SDS011;15345;59.364;18.016;2024-03-23T05:53:06;19.92;;;3.00;;
28028;SDS011;15345;59.364;18.016;2024-03-23T05:54:25;19.25;;;2.83;;
28028;SDS011;15345;59.364;18.016;2024-03-23T05:55:44;15.65;;;3.00;;
28028;SDS011;15345;59.364;18.016;2024-03-23T05:57:03;25.98;;;3.05;;
28028;SDS011;15345;59.364;18.016;2024-03-23T05:58:23;22.88;;;3.80;;
28028;SDS011;15345;59.364;18.016;2024-03-23T05:59:41;21.95;;;3.20;;
28028;SDS011;15345;59.364;18.016;2024-03-23T06:01:00;19.70;;;3.17;;
28028;SDS011;15345;59.364;18.016;2024-03-23T06:02:19;19.23;;;3.30;;
28028;SDS011;15345;59.364;18.016;2024-03-23T06:03:38;13.73;;;2.15;;
28028;SDS011;15345;59.364;18.016;2024-03-23T06:04:57;18.08;;;3.00;;
28028;SDS011;15345;59.364;18.016;2024-03-23T06:06:16;20.83;;;2.85;;
28028;SDS011;15345;59.364;18.016;2024-03-23T06:07:35;19.08;;;3.13;;
28028;SDS011;15345;59.364;18.016;2024-03-23T06:08:54;20.92;;;3.92;;
28028;SDS011;15345;59.364;18.016;2024-03-23T06:10:13;27.20;;;3.60;;
28028;SDS011;15345;59.364;18.016;2024-03-23T06:11:32;14.63;;;2.60;;
28028;SDS011;15345;59.364;18.016;2024-03-23T06:12:51;14.60;;;3.15;;
28028;SDS011;15345;59.364;18.016;2024-03-23T06:14:13;19.02;;;3.00;;
28028;SDS011;15345;59.364;18.016;2024-03-23T06:15:32;23.17;;;2.72;;
28028;SDS011;15345;59.364;18.016;2024-03-23T06:16:51;19.25;;;3.35;;
28028;SDS011;15345;59.364;18.016;2024-03-23T06:18:10;15.95;;;2.85;;
28028;SDS011;15345;59.364;18.016;2024-03-23T06:19:28;13.98;;;2.88;;
28028;SDS011;15345;59.364;18.016;2024-03-23T06:20:47;18.90;;;3.72;;
28028;SDS011;15345;59.364;18.016;2024-03-23T06:22:06;25.40;;;2.58;;
28028;SDS011;15345;59.364;18.016;2024-03-23T06:23:25;18.83;;;2.90;;
28028;SDS011;15345;59.364;18.016;2024-03-23T06:24:44;25.27;;;3.30;;
28028;SDS011;15345;59.364;18.016;2024-03-23T06:26:03;13.25;;;2.53;;
28028;SDS011;15345;59.364;18.016;2024-03-23T06:27:22;17.15;;;3.00;;
28028;SDS011;15345;59.364;18.016;2024-03-23T06:28:41;20.50;;;2.88;;
28028;SDS011;15345;59.364;18.016;2024-03-23T06:30:00;17.50;;;3.13;;
28028;SDS011;15345;59.364;18.016;2024-03-23T06:31:19;15.70;;;2.70;;
28028;SDS011;15345;59.364;18.016;2024-03-23T06:32:38;15.82;;;2.88;;
28028;SDS011;15345;59.364;18.016;2024-03-23T06:33:57;21.42;;;3.67;;
28028;SDS011;15345;59.364;18.016;2024-03-23T06:35:16;19.83;;;3.80;;
28028;SDS011;15345;59.364;18.016;2024-03-23T06:36:35;21.67;;;3.05;;
28028;SDS011;15345;59.364;18.016;2024-03-23T06:37:57;15.65;;;3.30;;
28028;SDS011;15345;59.364;18.016;2024-03-23T06:39:16;15.48;;;3.15;;
28028;SDS011;15345;59.364;18.016;2024-03-23T06:40:36;17.60;;;3.50;;
28028;SDS011;15345;59.364;18.016;2024-03-23T06:41:55;18.60;;;3.90;;
28028;SDS011;15345;59.364;18.016;2024-03-23T06:43:13;21.20;;;3.70;;
28028;SDS011;15345;59.364;18.016;2024-03-23T06:44:32;15.18;;;2.90;;
28028;SDS011;15345;59.364;18.016;2024-03-23T06:45:54;17.55;;;3.15;;
28028;SDS011;15345;59.364;18.016;2024-03-23T06:47:13;17.98;;;3.83;;
28028;SDS011;15345;59.364;18.016;2024-03-23T06:48:32;17.17;;;3.08;;
28028;SDS011;15345;59.364;18.016;2024-03-23T06:49:51;14.25;;;3.13;;
28028;SDS011;15345;59.364;18.016;2024-03-23T06:51:10;20.20;;;3.17;;
28028;SDS011;15345;59.364;18.016;2024-03-23T06:52:30;19.65;;;3.53;;
28028;SDS011;15345;59.364;18.016;2024-03-23T06:53:49;22.05;;;4.03;;
28028;SDS011;15345;59.364;18.016;2024-03-23T06:55:08;22.98;;;4.93;;
28028;SDS011;15345;59.364;18.016;2024-03-23T06:56:27;25.25;;;4.03;;
28028;SDS011;15345;59.364;18.016;2024-03-23T06:57:46;18.50;;;3.42;;
28028;SDS011;15345;59.364;18.016;2024-03-23T06:59:05;19.10;;;3.63;;
28028;SDS011;15345;59.364;18.016;2024-03-23T07:00:24;12.88;;;3.28;;
28028;SDS011;15345;59.364;18.016;2024-03-23T07:01:43;18.33;;;2.80;;
28028;SDS011;15345;59.364;18.016;2024-03-23T07:03:02;21.25;;;3.92;;
28028;SDS011;15345;59.364;18.016;2024-03-23T07:04:22;17.67;;;3.05;;
28028;SDS011;15345;59.364;18.016;2024-03-23T07:05:42;29.08;;;3.63;;
28028;SDS011;15345;59.364;18.016;2024-03-23T07:07:01;16.25;;;2.80;;
28028;SDS011;15345;59.364;18.016;2024-03-23T07:08:20;19.30;;;3.30;;
28028;SDS011;15345;59.364;18.016;2024-03-23T07:09:40;17.60;;;3.67;;
28028;SDS011;15345;59.364;18.016;2024-03-23T07:10:59;23.73;;;4.63;;
28028;SDS011;15345;59.364;18.016;2024-03-23T07:12:18;25.80;;;5.22;;
28028;SDS011;15345;59.364;18.016;2024-03-23T07:13:38;16.85;;;3.97;;
28028;SDS011;15345;59.364;18.016;2024-03-23T07:14:57;23.15;;;3.20;;
28028;SDS011;15345;59.364;18.016;2024-03-23T07:16:16;21.40;;;3.88;;
28028;SDS011;15345;59.364;18.016;2024-03-23T07:17:36;18.60;;;3.90;;
28028;SDS011;15345;59.364;18.016;2024-03-23T07:18:55;17.90;;;3.25;;
28028;SDS011;15345;59.364;18.016;2024-03-23T07:20:14;18.67;;;2.90;;
28028;SDS011;15345;59.364;18.016;2024-03-23T07:21:34;16.42;;;3.88;;
28028;SDS011;15345;59.364;18.016;2024-03-23T07:22:52;26.27;;;4.05;;
28028;SDS011;15345;59.364;18.016;2024-03-23T07:24:11;17.45;;;2.47;;
28028;SDS011;15345;59.364;18.016;2024-03-23T07:25:30;17.15;;;3.55;;
28028;SDS011;15345;59.364;18.016;2024-03-23T07:26:50;14.45;;;2.97;;
28028;SDS011;15345;59.364;18.016;2024-03-23T07:28:10;20.38;;;3.58;;
28028;SDS011;15345;59.364;18.016;2024-03-23T07:29:29;17.40;;;2.85;;
28028;SDS011;15345;59.364;18.016;2024-03-23T07:30:48;13.00;;;2.67;;
28028;SDS011;15345;59.364;18.016;2024-03-23T07:32:07;26.08;;;3.72;;
28028;SDS011;15345;59.364;18.016;2024-03-23T07:33:26;19.70;;;3.13;;
28028;SDS011;15345;59.364;18.016;2024-03-23T07:34:45;21.92;;;4.10;;
28028;SDS011;15345;59.364;18.016;2024-03-23T07:36:04;20.25;;;3.08;;
28028;SDS011;15345;59.364;18.016;2024-03-23T07:37:24;15.10;;;2.92;;
28028;SDS011;15345;59.364;18.016;2024-03-23T07:38:44;21.58;;;3.25;;
28028;SDS011;15345;59.364;18.016;2024-03-23T07:40:03;19.23;;;3.17;;
28028;SDS011;15345;59.364;18.016;2024-03-23T07:41:23;16.40;;;3.58;;
28028;SDS011;15345;59.364;18.016;2024-03-23T07:42:42;16.50;;;3.50;;
28028;SDS011;15345;59.364;18.016;2024-03-23T07:44:01;9.05;;;2.67;;
28028;SDS011;15345;59.364;18.016;2024-03-23T07:45:20;15.98;;;3.05;;
28028;SDS011;15345;59.364;18.016;2024-03-23T07:46:39;14.32;;;3.05;;
28028;SDS011;15345;59.364;18.016;2024-03-23T07:47:58;10.52;;;2.67;;
28028;SDS011;15345;59.364;18.016;2024-03-23T07:49:16;14.60;;;3.25;;
28028;SDS011;15345;59.364;18.016;2024-03-23T07:50:35;22.90;;;3.47;;
28028;SDS011;15345;59.364;18.016;2024-03-23T07:51:54;22.05;;;3.20;;
28028;SDS011;15345;59.364;18.016;2024-03-23T07:53:13;15.43;;;3.47;;
28028;SDS011;15345;59.364;18.016;2024-03-23T07:54:32;21.80;;;4.03;;
28028;SDS011;15345;59.364;18.016;2024-03-23T07:55:54;13.65;;;2.72;;
28028;SDS011;15345;59.364;18.016;2024-03-23T07:57:14;12.30;;;2.78;;
28028;SDS011;15345;59.364;18.016;2024-03-23T07:58:33;18.80;;;3.33;;
28028;SDS011;15345;59.364;18.016;2024-03-23T07:59:52;19.08;;;3.50;;
28028;SDS011;15345;59.364;18.016;2024-03-23T08:01:12;18.30;;;2.90;;
28028;SDS011;15345;59.364;18.016;2024-03-23T08:02:31;15.48;;;2.80;;
28028;SDS011;15345;59.364;18.016;2024-03-23T08:03:50;18.67;;;3.65;;
28028;SDS011;15345;59.364;18.016;2024-03-23T08:05:09;16.75;;;2.90;;
28028;SDS011;15345;59.364;18.016;2024-03-23T08:06:28;21.73;;;3.25;;
28028;SDS011;15345;59.364;18.016;2024-03-23T08:07:50;20.50;;;3.13;;
28028;SDS011;15345;59.364;18.016;2024-03-23T08:09:09;19.90;;;3.15;;
28028;SDS011;15345;59.364;18.016;2024-03-23T08:10:28;22.27;;;2.65;;
28028;SDS011;15345;59.364;18.016;2024-03-23T08:11:47;20.23;;;3.90;;
28028;SDS011;15345;59.364;18.016;2024-03-23T08:13:06;16.38;;;3.25;;
28028;SDS011;15345;59.364;18.016;2024-03-23T08:14:25;16.98;;;3.70;;
28028;SDS011;15345;59.364;18.016;2024-03-23T08:15:44;23.75;;;3.80;;
28028;SDS011;15345;59.364;18.016;2024-03-23T08:17:03;24.15;;;3.20;;
28028;SDS011;15345;59.364;18.016;2024-03-23T08:18:22;19.45;;;3.03;;
28028;SDS011;15345;59.364;18.016;2024-03-23T08:19:41;16.98;;;3.03;;
28028;SDS011;15345;59.364;18.016;2024-03-23T08:21:00;15.02;;;3.30;;
28028;SDS011;15345;59.364;18.016;2024-03-23T08:22:19;15.77;;;3.53;;
28028;SDS011;15345;59.364;18.016;2024-03-23T08:23:38;16.77;;;3.78;;
28028;SDS011;15345;59.364;18.016;2024-03-23T08:24:58;20.20;;;3.55;;
28028;SDS011;15345;59.364;18.016;2024-03-23T08:26:16;20.05;;;3.22;;
28028;SDS011;15345;59.364;18.016;2024-03-23T08:27:38;16.55;;;2.85;;
28028;SDS011;15345;59.364;18.016;2024-03-23T08:28:58;21.75;;;3.72;;
28028;SDS011;15345;59.364;18.016;2024-03-23T08:30:16;15.25;;;2.92;;
28028;SDS011;15345;59.364;18.016;2024-03-23T08:31:35;21.17;;;4.25;;
28028;SDS011;15345;59.364;18.016;2024-03-23T08:32:54;19.55;;;3.88;;
28028;SDS011;15345;59.364;18.016;2024-03-23T08:34:13;23.92;;;3.30;;
28028;SDS011;15345;59.364;18.016;2024-03-23T08:35:32;14.18;;;2.50;;
28028;SDS011;15345;59.364;18.016;2024-03-23T08:36:53;17.63;;;2.92;;
28028;SDS011;15345;59.364;18.016;2024-03-23T08:38:12;15.07;;;2.80;;
28028;SDS011;15345;59.364;18.016;2024-03-23T08:39:31;22.27;;;2.78;;